sensor_id;sensor_type;location;lat;lon;timestamp;P1;durP1;ratioP1;P2;durP2;ratioP2
3637;SDS011;1835;50.068;8.154;2022-11-15T00:01:14;13.20;;;7.10;;
3637;SDS011;1835;50.068;8.154;2022-11-15T00:03:45;10.40;;;6.03;;
3637;SDS011;1835;50.068;8.154;2022-11-15T00:06:13;9.83;;;7.40;;
3637;SDS011;1835;50.068;8.154;2022-11-15T00:08:41;14.30;;;6.77;;
3637;SDS011;1835;50.068;8.154;2022-11-15T00:11:10;16.43;;;7.13;;
3637;SDS011;1835;50.068;8.154;2022-11-15T00:13:39;17.93;;;7.30;;
3637;SDS011;1835;50.068;8.154;2022-11-15T00:16:08;12.67;;;6.73;;
3637;SDS011;1835;50.068;8.154;2022-11-15T00:18:38;12.87;;;5.53;;
3637;SDS011;1835;50.068;8.154;2022-11-15T00:21:13;10.93;;;5.90;;
3637;SDS011;1835;50.068;8.154;2022-11-15T00:23:42;14.20;;;5.73;;
3637;SDS011;1835;50.068;8.154;2022-11-15T00:26:10;14.03;;;6.90;;
3637;SDS011;1835;50.068;8.154;2022-11-15T00:28:40;11.80;;;6.70;;
3637;SDS011;1835;50.068;8.154;2022-11-15T00:31:10;12.80;;;7.33;;
3637;SDS011;1835;50.068;8.154;2022-11-15T00:33:43;10.27;;;7.07;;
3637;SDS011;1835;50.068;8.154;2022-11-15T00:36:12;16.77;;;6.83;;
3637;SDS011;1835;50.068;8.154;2022-11-15T00:38:40;15.90;;;6.57;;
3637;SDS011;1835;50.068;8.154;2022-11-15T00:41:08;11.33;;;7.10;;
3637;SDS011;1835;50.068;8.154;2022-11-15T00:43:36;13.80;;;6.90;;
3637;SDS011;1835;50.068;8.154;2022-11-15T00:46:06;8.70;;;6.47;;
3637;SDS011;1835;50.068;8.154;2022-11-15T00:48:35;11.30;;;6.53;;
3637;SDS011;1835;50.068;8.154;2022-11-15T00:51:05;12.23;;;6.50;;
3637;SDS011;1835;50.068;8.154;2022-11-15T00:53:33;14.77;;;7.80;;
3637;SDS011;1835;50.068;8.154;2022-11-15T00:56:01;13.40;;;8.33;;
3637;SDS011;1835;50.068;8.154;2022-11-15T00:58:30;15.43;;;7.67;;
3637;SDS011;1835;50.068;8.154;2022-11-15T01:01:04;9.60;;;6.90;;
3637;SDS011;1835;50.068;8.154;2022-11-15T01:03:34;14.90;;;7.80;;
3637;SDS011;1835;50.068;8.154;2022-11-15T01:06:03;18.77;;;8.60;;
3637;SDS011;1835;50.068;8.154;2022-11-15T01:08:33;11.63;;;6.67;;
3637;SDS011;1835;50.068;8.154;2022-11-15T01:11:02;11.50;;;6.77;;
3637;SDS011;1835;50.068;8.154;2022-11-15T01:13:32;11.87;;;7.20;;
3637;SDS011;1835;50.068;8.154;2022-11-15T01:16:05;12.27;;;6.80;;
3637;SDS011;1835;50.068;8.154;2022-11-15T01:18:35;12.20;;;7.30;;
3637;SDS011;1835;50.068;8.154;2022-11-15T01:21:06;12.33;;;7.20;;
3637;SDS011;1835;50.068;8.154;2022-11-15T01:23:35;11.07;;;7.13;;
3637;SDS011;1835;50.068;8.154;2022-11-15T01:26:04;13.33;;;7.77;;
3637;SDS011;1835;50.068;8.154;2022-11-15T01:28:35;11.63;;;7.27;;
3637;SDS011;1835;50.068;8.154;2022-11-15T01:31:06;16.97;;;8.27;;
3637;SDS011;1835;50.068;8.154;2022-11-15T01:33:39;16.63;;;7.73;;
3637;SDS011;1835;50.068;8.154;2022-11-15T01:36:10;15.07;;;7.83;;
3637;SDS011;1835;50.068;8.154;2022-11-15T01:38:41;13.37;;;6.77;;
3637;SDS011;1835;50.068;8.154;2022-11-15T01:41:14;14.17;;;7.80;;
3637;SDS011;1835;50.068;8.154;2022-11-15T01:43:45;16.97;;;7.97;;
3637;SDS011;1835;50.068;8.154;2022-11-15T01:46:19;16.23;;;7.40;;
3637;SDS011;1835;50.068;8.154;2022-11-15T01:48:54;9.83;;;6.97;;
3637;SDS011;1835;50.068;8.154;2022-11-15T01:51:27;13.93;;;6.77;;
3637;SDS011;1835;50.068;8.154;2022-11-15T01:53:58;20.33;;;8.40;;
3637;SDS011;1835;50.068;8.154;2022-11-15T01:56:30;15.50;;;6.53;;
3637;SDS011;1835;50.068;8.154;2022-11-15T01:59:04;13.33;;;7.10;;
3637;SDS011;1835;50.068;8.154;2022-11-15T02:01:34;11.87;;;7.50;;
3637;SDS011;1835;50.068;8.154;2022-11-15T02:04:04;10.53;;;6.43;;
3637;SDS011;1835;50.068;8.154;2022-11-15T02:06:40;13.97;;;7.33;;
3637;SDS011;1835;50.068;8.154;2022-11-15T02:09:10;11.33;;;6.90;;
3637;SDS011;1835;50.068;8.154;2022-11-15T02:11:39;14.33;;;7.20;;
3637;SDS011;1835;50.068;8.154;2022-11-15T02:14:08;11.20;;;7.07;;
3637;SDS011;1835;50.068;8.154;2022-11-15T02:16:39;13.00;;;6.50;;
3637;SDS011;1835;50.068;8.154;2022-11-15T02:19:22;17.07;;;7.53;;
3637;SDS011;1835;50.068;8.154;2022-11-15T02:22:14;7.80;;;5.73;;
3637;SDS011;1835;50.068;8.154;2022-11-15T02:28:08;11.03;;;6.53;;
3637;SDS011;1835;50.068;8.154;2022-11-15T02:31:14;14.50;;;7.40;;
3637;SDS011;1835;50.068;8.154;2022-11-15T02:33:53;15.03;;;6.50;;
3637;SDS011;1835;50.068;8.154;2022-11-15T02:36:32;8.73;;;6.20;;
3637;SDS011;1835;50.068;8.154;2022-11-15T02:39:08;11.17;;;6.00;;
3637;SDS011;1835;50.068;8.154;2022-11-15T02:41:46;9.07;;;6.70;;
3637;SDS011;1835;50.068;8.154;2022-11-15T02:44:21;19.23;;;7.37;;
3637;SDS011;1835;50.068;8.154;2022-11-15T02:46:57;15.40;;;6.20;;
3637;SDS011;1835;50.068;8.154;2022-11-15T02:49:41;8.50;;;5.90;;
3637;SDS011;1835;50.068;8.154;2022-11-15T02:52:14;21.67;;;6.80;;
3637;SDS011;1835;50.068;8.154;2022-11-15T02:54:52;11.17;;;6.90;;
3637;SDS011;1835;50.068;8.154;2022-11-15T02:57:24;12.33;;;7.10;;
3637;SDS011;1835;50.068;8.154;2022-11-15T03:00:06;21.10;;;7.47;;
3637;SDS011;1835;50.068;8.154;2022-11-15T03:02:43;13.93;;;6.60;;
3637;SDS011;1835;50.068;8.154;2022-11-15T03:05:37;12.13;;;6.33;;
3637;SDS011;1835;50.068;8.154;2022-11-15T03:08:13;13.30;;;6.47;;
3637;SDS011;1835;50.068;8.154;2022-11-15T03:10:52;7.43;;;5.70;;
3637;SDS011;1835;50.068;8.154;2022-11-15T03:13:33;9.30;;;5.73;;
3637;SDS011;1835;50.068;8.154;2022-11-15T03:16:08;16.27;;;7.53;;
3637;SDS011;1835;50.068;8.154;2022-11-15T03:18:41;16.87;;;7.63;;
3637;SDS011;1835;50.068;8.154;2022-11-15T03:21:12;11.50;;;7.10;;
3637;SDS011;1835;50.068;8.154;2022-11-15T03:23:42;18.30;;;8.50;;
3637;SDS011;1835;50.068;8.154;2022-11-15T03:26:11;20.30;;;7.57;;
3637;SDS011;1835;50.068;8.154;2022-11-15T03:28:42;11.47;;;6.60;;
3637;SDS011;1835;50.068;8.154;2022-11-15T03:31:16;13.63;;;6.10;;
3637;SDS011;1835;50.068;8.154;2022-11-15T03:34:05;14.90;;;7.77;;
3637;SDS011;1835;50.068;8.154;2022-11-15T03:36:38;11.50;;;7.23;;
3637;SDS011;1835;50.068;8.154;2022-11-15T03:39:07;9.60;;;7.40;;
3637;SDS011;1835;50.068;8.154;2022-11-15T03:41:42;10.13;;;6.60;;
3637;SDS011;1835;50.068;8.154;2022-11-15T03:44:16;8.37;;;5.73;;
3637;SDS011;1835;50.068;8.154;2022-11-15T03:47:00;17.83;;;6.73;;
3637;SDS011;1835;50.068;8.154;2022-11-15T03:49:35;14.87;;;6.37;;
3637;SDS011;1835;50.068;8.154;2022-11-15T03:52:06;11.60;;;5.50;;
3637;SDS011;1835;50.068;8.154;2022-11-15T03:54:39;10.03;;;6.80;;
3637;SDS011;1835;50.068;8.154;2022-11-15T03:57:19;14.40;;;5.77;;
3637;SDS011;1835;50.068;8.154;2022-11-15T03:59:47;8.50;;;5.60;;
3637;SDS011;1835;50.068;8.154;2022-11-15T04:02:16;15.03;;;5.23;;
3637;SDS011;1835;50.068;8.154;2022-11-15T04:04:45;9.80;;;5.43;;
3637;SDS011;1835;50.068;8.154;2022-11-15T04:07:13;10.97;;;5.43;;
3637;SDS011;1835;50.068;8.154;2022-11-15T04:09:41;14.03;;;5.50;;
3637;SDS011;1835;50.068;8.154;2022-11-15T04:12:23;11.13;;;5.47;;
3637;SDS011;1835;50.068;8.154;2022-11-15T04:14:58;10.90;;;5.87;;
3637;SDS011;1835;50.068;8.154;2022-11-15T04:17:37;14.63;;;6.63;;
3637;SDS011;1835;50.068;8.154;2022-11-15T04:20:09;13.13;;;4.90;;
3637;SDS011;1835;50.068;8.154;2022-11-15T04:22:57;9.43;;;5.40;;
3637;SDS011;1835;50.068;8.154;2022-11-15T04:25:44;8.90;;;5.07;;
3637;SDS011;1835;50.068;8.154;2022-11-15T04:28:14;7.60;;;5.17;;
3637;SDS011;1835;50.068;8.154;2022-11-15T04:30:42;6.83;;;4.87;;
3637;SDS011;1835;50.068;8.154;2022-11-15T04:33:10;11.13;;;6.30;;
3637;SDS011;1835;50.068;8.154;2022-11-15T04:35:40;14.53;;;6.80;;
3637;SDS011;1835;50.068;8.154;2022-11-15T04:38:09;8.40;;;5.77;;
3637;SDS011;1835;50.068;8.154;2022-11-15T04:40:37;9.60;;;6.27;;
3637;SDS011;1835;50.068;8.154;2022-11-15T04:43:06;9.93;;;6.10;;
3637;SDS011;1835;50.068;8.154;2022-11-15T04:45:34;11.10;;;5.90;;
3637;SDS011;1835;50.068;8.154;2022-11-15T04:48:02;10.00;;;6.77;;
3637;SDS011;1835;50.068;8.154;2022-11-15T04:50:30;11.27;;;6.13;;
3637;SDS011;1835;50.068;8.154;2022-11-15T04:52:59;11.50;;;6.50;;
3637;SDS011;1835;50.068;8.154;2022-11-15T04:55:27;15.50;;;6.27;;
3637;SDS011;1835;50.068;8.154;2022-11-15T04:57:59;12.27;;;6.43;;
3637;SDS011;1835;50.068;8.154;2022-11-15T05:00:28;13.03;;;6.00;;
3637;SDS011;1835;50.068;8.154;2022-11-15T05:02:56;9.13;;;6.60;;
3637;SDS011;1835;50.068;8.154;2022-11-15T05:05:41;9.40;;;6.37;;
3637;SDS011;1835;50.068;8.154;2022-11-15T05:08:11;13.20;;;7.20;;
3637;SDS011;1835;50.068;8.154;2022-11-15T05:10:39;12.30;;;5.90;;
3637;SDS011;1835;50.068;8.154;2022-11-15T05:13:07;12.47;;;6.07;;
3637;SDS011;1835;50.068;8.154;2022-11-15T05:15:35;10.90;;;5.43;;
3637;SDS011;1835;50.068;8.154;2022-11-15T05:18:03;11.57;;;6.03;;
3637;SDS011;1835;50.068;8.154;2022-11-15T05:20:31;12.00;;;6.40;;
3637;SDS011;1835;50.068;8.154;2022-11-15T05:22:59;12.50;;;6.40;;
3637;SDS011;1835;50.068;8.154;2022-11-15T05:25:29;9.13;;;6.13;;
3637;SDS011;1835;50.068;8.154;2022-11-15T05:27:57;12.60;;;6.20;;
3637;SDS011;1835;50.068;8.154;2022-11-15T05:30:25;15.57;;;6.40;;
3637;SDS011;1835;50.068;8.154;2022-11-15T05:32:53;15.10;;;7.30;;
3637;SDS011;1835;50.068;8.154;2022-11-15T05:35:22;15.10;;;6.00;;
3637;SDS011;1835;50.068;8.154;2022-11-15T05:37:58;8.50;;;5.97;;
3637;SDS011;1835;50.068;8.154;2022-11-15T05:40:26;9.50;;;5.67;;
3637;SDS011;1835;50.068;8.154;2022-11-15T05:42:57;10.93;;;5.87;;
3637;SDS011;1835;50.068;8.154;2022-11-15T05:45:27;19.10;;;5.60;;
3637;SDS011;1835;50.068;8.154;2022-11-15T05:47:56;11.20;;;6.00;;
3637;SDS011;1835;50.068;8.154;2022-11-15T05:50:27;12.00;;;6.30;;
3637;SDS011;1835;50.068;8.154;2022-11-15T05:52:55;12.60;;;5.87;;
3637;SDS011;1835;50.068;8.154;2022-11-15T05:55:31;12.97;;;6.87;;
3637;SDS011;1835;50.068;8.154;2022-11-15T05:58:01;9.77;;;5.83;;
3637;SDS011;1835;50.068;8.154;2022-11-15T06:00:29;10.53;;;5.50;;
3637;SDS011;1835;50.068;8.154;2022-11-15T06:02:57;8.00;;;5.87;;
3637;SDS011;1835;50.068;8.154;2022-11-15T06:05:25;12.70;;;6.00;;
3637;SDS011;1835;50.068;8.154;2022-11-15T06:07:56;11.50;;;5.67;;
3637;SDS011;1835;50.068;8.154;2022-11-15T06:10:25;21.53;;;6.10;;
3637;SDS011;1835;50.068;8.154;2022-11-15T06:12:57;10.10;;;6.33;;
3637;SDS011;1835;50.068;8.154;2022-11-15T06:15:26;15.00;;;7.17;;
3637;SDS011;1835;50.068;8.154;2022-11-15T06:17:55;14.47;;;7.00;;
3637;SDS011;1835;50.068;8.154;2022-11-15T06:20:24;11.57;;;7.23;;
3637;SDS011;1835;50.068;8.154;2022-11-15T06:22:55;14.17;;;6.13;;
3637;SDS011;1835;50.068;8.154;2022-11-15T06:25:25;12.93;;;7.60;;
3637;SDS011;1835;50.068;8.154;2022-11-15T06:27:54;12.47;;;6.93;;
3637;SDS011;1835;50.068;8.154;2022-11-15T06:30:25;13.97;;;6.80;;
3637;SDS011;1835;50.068;8.154;2022-11-15T06:33:00;14.10;;;6.27;;
3637;SDS011;1835;50.068;8.154;2022-11-15T06:35:30;13.33;;;7.00;;
3637;SDS011;1835;50.068;8.154;2022-11-15T06:38:01;16.97;;;7.37;;
3637;SDS011;1835;50.068;8.154;2022-11-15T06:40:32;11.17;;;6.67;;
3637;SDS011;1835;50.068;8.154;2022-11-15T06:43:02;10.93;;;6.07;;
3637;SDS011;1835;50.068;8.154;2022-11-15T06:45:32;15.83;;;5.80;;
3637;SDS011;1835;50.068;8.154;2022-11-15T06:48:00;8.10;;;4.67;;
3637;SDS011;1835;50.068;8.154;2022-11-15T06:50:28;8.90;;;5.23;;
3637;SDS011;1835;50.068;8.154;2022-11-15T06:52:59;8.70;;;5.47;;
3637;SDS011;1835;50.068;8.154;2022-11-15T06:55:29;12.60;;;4.77;;
3637;SDS011;1835;50.068;8.154;2022-11-15T06:57:57;5.73;;;4.70;;
3637;SDS011;1835;50.068;8.154;2022-11-15T07:00:25;7.30;;;5.67;;
3637;SDS011;1835;50.068;8.154;2022-11-15T07:02:54;11.97;;;5.60;;
3637;SDS011;1835;50.068;8.154;2022-11-15T07:05:23;8.43;;;4.83;;
3637;SDS011;1835;50.068;8.154;2022-11-15T07:07:52;9.83;;;5.43;;
3637;SDS011;1835;50.068;8.154;2022-11-15T07:10:21;11.23;;;5.40;;
3637;SDS011;1835;50.068;8.154;2022-11-15T07:12:51;10.87;;;6.40;;
3637;SDS011;1835;50.068;8.154;2022-11-15T07:15:21;9.20;;;5.27;;
3637;SDS011;1835;50.068;8.154;2022-11-15T07:17:51;10.30;;;4.83;;
3637;SDS011;1835;50.068;8.154;2022-11-15T07:20:20;11.13;;;5.90;;
3637;SDS011;1835;50.068;8.154;2022-11-15T07:22:48;12.87;;;5.70;;
3637;SDS011;1835;50.068;8.154;2022-11-15T07:25:18;9.27;;;4.97;;
3637;SDS011;1835;50.068;8.154;2022-11-15T07:27:53;13.07;;;4.30;;
3637;SDS011;1835;50.068;8.154;2022-11-15T07:30:22;6.10;;;4.00;;
3637;SDS011;1835;50.068;8.154;2022-11-15T07:32:52;10.97;;;4.10;;
3637;SDS011;1835;50.068;8.154;2022-11-15T07:35:22;11.30;;;4.80;;
3637;SDS011;1835;50.068;8.154;2022-11-15T07:37:54;15.97;;;5.73;;
3637;SDS011;1835;50.068;8.154;2022-11-15T07:40:23;10.13;;;3.93;;
3637;SDS011;1835;50.068;8.154;2022-11-15T07:42:52;8.33;;;4.50;;
3637;SDS011;1835;50.068;8.154;2022-11-15T07:45:20;4.87;;;4.40;;
3637;SDS011;1835;50.068;8.154;2022-11-15T07:47:49;10.20;;;4.30;;
3637;SDS011;1835;50.068;8.154;2022-11-15T07:50:21;12.90;;;4.50;;
3637;SDS011;1835;50.068;8.154;2022-11-15T07:52:52;4.90;;;3.40;;
3637;SDS011;1835;50.068;8.154;2022-11-15T07:55:22;15.47;;;5.00;;
3637;SDS011;1835;50.068;8.154;2022-11-15T07:57:50;7.90;;;5.10;;
3637;SDS011;1835;50.068;8.154;2022-11-15T08:00:18;8.03;;;3.80;;
3637;SDS011;1835;50.068;8.154;2022-11-15T08:02:50;6.83;;;4.50;;
3637;SDS011;1835;50.068;8.154;2022-11-15T08:05:18;4.17;;;3.30;;
3637;SDS011;1835;50.068;8.154;2022-11-15T08:07:48;6.33;;;4.70;;
3637;SDS011;1835;50.068;8.154;2022-11-15T08:10:18;7.70;;;4.57;;
3637;SDS011;1835;50.068;8.154;2022-11-15T08:12:46;8.83;;;4.60;;
3637;SDS011;1835;50.068;8.154;2022-11-15T08:15:14;8.70;;;5.03;;
3637;SDS011;1835;50.068;8.154;2022-11-15T08:17:42;7.20;;;4.00;;
3637;SDS011;1835;50.068;8.154;2022-11-15T08:20:10;8.50;;;4.20;;
3637;SDS011;1835;50.068;8.154;2022-11-15T08:22:38;7.73;;;4.40;;
3637;SDS011;1835;50.068;8.154;2022-11-15T08:25:09;14.80;;;5.00;;
3637;SDS011;1835;50.068;8.154;2022-11-15T08:27:37;6.37;;;4.07;;
3637;SDS011;1835;50.068;8.154;2022-11-15T08:30:05;7.47;;;4.67;;
3637;SDS011;1835;50.068;8.154;2022-11-15T08:32:35;10.47;;;4.07;;
3637;SDS011;1835;50.068;8.154;2022-11-15T08:35:03;9.53;;;4.67;;
3637;SDS011;1835;50.068;8.154;2022-11-15T08:37:33;4.67;;;3.67;;
3637;SDS011;1835;50.068;8.154;2022-11-15T08:40:01;6.87;;;4.23;;
3637;SDS011;1835;50.068;8.154;2022-11-15T08:42:30;11.70;;;4.40;;
3637;SDS011;1835;50.068;8.154;2022-11-15T08:44:58;5.53;;;4.00;;
3637;SDS011;1835;50.068;8.154;2022-11-15T08:47:26;4.67;;;3.30;;
3637;SDS011;1835;50.068;8.154;2022-11-15T08:49:55;6.07;;;4.50;;
3637;SDS011;1835;50.068;8.154;2022-11-15T08:52:23;6.47;;;3.47;;
3637;SDS011;1835;50.068;8.154;2022-11-15T08:54:51;4.47;;;3.67;;
3637;SDS011;1835;50.068;8.154;2022-11-15T08:57:19;10.03;;;4.20;;
3637;SDS011;1835;50.068;8.154;2022-11-15T08:59:50;10.83;;;5.20;;
3637;SDS011;1835;50.068;8.154;2022-11-15T09:02:18;8.50;;;4.77;;
3637;SDS011;1835;50.068;8.154;2022-11-15T09:04:46;7.57;;;4.27;;
3637;SDS011;1835;50.068;8.154;2022-11-15T09:07:14;3.60;;;3.27;;
3637;SDS011;1835;50.068;8.154;2022-11-15T09:09:43;4.10;;;3.43;;
3637;SDS011;1835;50.068;8.154;2022-11-15T09:12:11;7.13;;;4.30;;
3637;SDS011;1835;50.068;8.154;2022-11-15T09:14:39;6.47;;;4.50;;
3637;SDS011;1835;50.068;8.154;2022-11-15T09:17:09;5.87;;;3.87;;
3637;SDS011;1835;50.068;8.154;2022-11-15T09:19:37;3.93;;;3.60;;
3637;SDS011;1835;50.068;8.154;2022-11-15T09:22:05;14.33;;;7.17;;
3637;SDS011;1835;50.068;8.154;2022-11-15T09:24:34;5.80;;;4.10;;
3637;SDS011;1835;50.068;8.154;2022-11-15T09:27:02;10.97;;;8.00;;
3637;SDS011;1835;50.068;8.154;2022-11-15T09:29:30;17.80;;;5.73;;
3637;SDS011;1835;50.068;8.154;2022-11-15T09:32:00;10.07;;;5.60;;
3637;SDS011;1835;50.068;8.154;2022-11-15T09:34:29;11.23;;;6.77;;
3637;SDS011;1835;50.068;8.154;2022-11-15T09:36:57;8.47;;;6.10;;
3637;SDS011;1835;50.068;8.154;2022-11-15T09:39:25;6.27;;;5.30;;
3637;SDS011;1835;50.068;8.154;2022-11-15T09:41:58;8.70;;;5.13;;
3637;SDS011;1835;50.068;8.154;2022-11-15T09:44:57;11.73;;;5.73;;
3637;SDS011;1835;50.068;8.154;2022-11-15T09:47:44;10.63;;;5.20;;
3637;SDS011;1835;50.068;8.154;2022-11-15T09:50:28;11.73;;;5.80;;
3637;SDS011;1835;50.068;8.154;2022-11-15T09:53:03;8.40;;;4.80;;
3637;SDS011;1835;50.068;8.154;2022-11-15T09:55:34;11.07;;;5.90;;
3637;SDS011;1835;50.068;8.154;2022-11-15T09:58:15;11.00;;;6.23;;
3637;SDS011;1835;50.068;8.154;2022-11-15T10:00:52;14.90;;;6.70;;
3637;SDS011;1835;50.068;8.154;2022-11-15T10:03:23;7.63;;;6.00;;
3637;SDS011;1835;50.068;8.154;2022-11-15T10:05:57;10.90;;;6.33;;
3637;SDS011;1835;50.068;8.154;2022-11-15T10:08:31;8.53;;;5.70;;
3637;SDS011;1835;50.068;8.154;2022-11-15T10:11:15;12.97;;;6.60;;
3637;SDS011;1835;50.068;8.154;2022-11-15T10:14:04;7.97;;;5.77;;
3637;SDS011;1835;50.068;8.154;2022-11-15T10:16:52;10.20;;;6.00;;
3637;SDS011;1835;50.068;8.154;2022-11-15T10:19:46;9.43;;;6.23;;
3637;SDS011;1835;50.068;8.154;2022-11-15T10:22:34;11.77;;;7.93;;
3637;SDS011;1835;50.068;8.154;2022-11-15T10:25:12;15.40;;;8.00;;
3637;SDS011;1835;50.068;8.154;2022-11-15T10:27:50;9.40;;;6.37;;
3637;SDS011;1835;50.068;8.154;2022-11-15T10:30:29;9.27;;;5.23;;
3637;SDS011;1835;50.068;8.154;2022-11-15T10:33:12;14.93;;;8.60;;
3637;SDS011;1835;50.068;8.154;2022-11-15T10:38:55;13.60;;;6.10;;
3637;SDS011;1835;50.068;8.154;2022-11-15T10:41:32;9.40;;;7.10;;
3637;SDS011;1835;50.068;8.154;2022-11-15T10:44:20;13.40;;;6.57;;
3637;SDS011;1835;50.068;8.154;2022-11-15T10:50:05;15.13;;;7.13;;
3637;SDS011;1835;50.068;8.154;2022-11-15T10:52:53;23.50;;;7.30;;
3637;SDS011;1835;50.068;8.154;2022-11-15T10:55:24;10.80;;;6.30;;
3637;SDS011;1835;50.068;8.154;2022-11-15T10:57:55;10.47;;;6.90;;
3637;SDS011;1835;50.068;8.154;2022-11-15T11:00:32;9.37;;;6.50;;
3637;SDS011;1835;50.068;8.154;2022-11-15T11:03:05;9.40;;;6.37;;
3637;SDS011;1835;50.068;8.154;2022-11-15T11:05:47;19.03;;;7.07;;
3637;SDS011;1835;50.068;8.154;2022-11-15T11:08:21;10.70;;;6.40;;
3637;SDS011;1835;50.068;8.154;2022-11-15T11:10:53;12.90;;;6.67;;
3637;SDS011;1835;50.068;8.154;2022-11-15T11:13:30;9.30;;;6.20;;
3637;SDS011;1835;50.068;8.154;2022-11-15T11:16:05;13.03;;;6.40;;
3637;SDS011;1835;50.068;8.154;2022-11-15T11:18:55;14.07;;;5.80;;
3637;SDS011;1835;50.068;8.154;2022-11-15T11:21:36;16.70;;;7.00;;
3637;SDS011;1835;50.068;8.154;2022-11-15T11:24:14;11.80;;;6.67;;
3637;SDS011;1835;50.068;8.154;2022-11-15T11:26:57;12.63;;;7.43;;
3637;SDS011;1835;50.068;8.154;2022-11-15T11:29:49;13.00;;;7.00;;
3637;SDS011;1835;50.068;8.154;2022-11-15T11:35:30;11.73;;;7.13;;
3637;SDS011;1835;50.068;8.154;2022-11-15T11:38:12;16.30;;;6.30;;
3637;SDS011;1835;50.068;8.154;2022-11-15T11:40:59;15.33;;;7.90;;
3637;SDS011;1835;50.068;8.154;2022-11-15T11:43:36;12.77;;;6.70;;
3637;SDS011;1835;50.068;8.154;2022-11-15T11:46:36;13.43;;;6.20;;
3637;SDS011;1835;50.068;8.154;2022-11-15T11:49:25;19.33;;;7.37;;
3637;SDS011;1835;50.068;8.154;2022-11-15T11:52:02;20.40;;;8.10;;
3637;SDS011;1835;50.068;8.154;2022-11-15T11:54:39;21.80;;;6.90;;
3637;SDS011;1835;50.068;8.154;2022-11-15T11:57:16;15.30;;;7.43;;
3637;SDS011;1835;50.068;8.154;2022-11-15T11:59:53;13.70;;;7.03;;
3637;SDS011;1835;50.068;8.154;2022-11-15T12:02:29;15.70;;;7.00;;
3637;SDS011;1835;50.068;8.154;2022-11-15T12:05:04;19.40;;;7.13;;
3637;SDS011;1835;50.068;8.154;2022-11-15T12:07:40;7.97;;;6.10;;
3637;SDS011;1835;50.068;8.154;2022-11-15T12:10:14;11.33;;;6.60;;
3637;SDS011;1835;50.068;8.154;2022-11-15T12:12:50;7.17;;;5.23;;
3637;SDS011;1835;50.068;8.154;2022-11-15T12:15:28;10.73;;;6.03;;
3637;SDS011;1835;50.068;8.154;2022-11-15T12:18:00;10.07;;;6.60;;
3637;SDS011;1835;50.068;8.154;2022-11-15T12:20:30;8.20;;;6.27;;
3637;SDS011;1835;50.068;8.154;2022-11-15T12:23:06;8.80;;;5.10;;
3637;SDS011;1835;50.068;8.154;2022-11-15T12:25:41;7.60;;;5.10;;
3637;SDS011;1835;50.068;8.154;2022-11-15T12:28:15;10.70;;;5.80;;
3637;SDS011;1835;50.068;8.154;2022-11-15T12:30:50;9.60;;;5.33;;
3637;SDS011;1835;50.068;8.154;2022-11-15T12:33:29;9.20;;;5.30;;
3637;SDS011;1835;50.068;8.154;2022-11-15T12:36:04;7.63;;;5.30;;
3637;SDS011;1835;50.068;8.154;2022-11-15T12:41:26;7.73;;;5.17;;
3637;SDS011;1835;50.068;8.154;2022-11-15T12:43:56;10.83;;;5.27;;
3637;SDS011;1835;50.068;8.154;2022-11-15T12:49:50;12.30;;;5.83;;
3637;SDS011;1835;50.068;8.154;2022-11-15T12:52:20;15.00;;;5.23;;
3637;SDS011;1835;50.068;8.154;2022-11-15T12:54:52;9.20;;;5.77;;
3637;SDS011;1835;50.068;8.154;2022-11-15T12:57:33;8.90;;;5.13;;
3637;SDS011;1835;50.068;8.154;2022-11-15T13:03:17;9.70;;;6.17;;
3637;SDS011;1835;50.068;8.154;2022-11-15T13:06:03;8.77;;;5.67;;
3637;SDS011;1835;50.068;8.154;2022-11-15T13:09:49;11.40;;;5.97;;
3637;SDS011;1835;50.068;8.154;2022-11-15T13:15:34;22.03;;;11.63;;
3637;SDS011;1835;50.068;8.154;2022-11-15T13:18:25;24.30;;;12.57;;
3637;SDS011;1835;50.068;8.154;2022-11-15T13:21:04;10.93;;;5.03;;
3637;SDS011;1835;50.068;8.154;2022-11-15T13:24:04;6.93;;;4.93;;
3637;SDS011;1835;50.068;8.154;2022-11-15T13:26:38;17.80;;;5.77;;
3637;SDS011;1835;50.068;8.154;2022-11-15T13:29:17;8.83;;;4.40;;
3637;SDS011;1835;50.068;8.154;2022-11-15T13:31:46;8.40;;;5.17;;
3637;SDS011;1835;50.068;8.154;2022-11-15T13:34:25;14.17;;;5.40;;
3637;SDS011;1835;50.068;8.154;2022-11-15T13:37:27;11.30;;;5.03;;
3637;SDS011;1835;50.068;8.154;2022-11-15T13:40:10;11.43;;;5.60;;
3637;SDS011;1835;50.068;8.154;2022-11-15T13:42:48;11.83;;;5.40;;
3637;SDS011;1835;50.068;8.154;2022-11-15T13:45:16;17.03;;;5.27;;
3637;SDS011;1835;50.068;8.154;2022-11-15T13:47:50;7.60;;;4.83;;
3637;SDS011;1835;50.068;8.154;2022-11-15T13:50:23;10.33;;;4.90;;
3637;SDS011;1835;50.068;8.154;2022-11-15T13:52:55;8.93;;;4.77;;
3637;SDS011;1835;50.068;8.154;2022-11-15T13:55:27;12.00;;;5.57;;
3637;SDS011;1835;50.068;8.154;2022-11-15T13:57:59;8.03;;;4.00;;
3637;SDS011;1835;50.068;8.154;2022-11-15T14:00:33;9.20;;;4.50;;
3637;SDS011;1835;50.068;8.154;2022-11-15T14:03:05;6.77;;;4.77;;
3637;SDS011;1835;50.068;8.154;2022-11-15T14:05:47;5.80;;;4.53;;
3637;SDS011;1835;50.068;8.154;2022-11-15T14:08:35;7.10;;;3.80;;
3637;SDS011;1835;50.068;8.154;2022-11-15T14:11:13;6.40;;;4.50;;
3637;SDS011;1835;50.068;8.154;2022-11-15T14:13:58;12.63;;;4.20;;
3637;SDS011;1835;50.068;8.154;2022-11-15T14:16:39;8.87;;;6.03;;
3637;SDS011;1835;50.068;8.154;2022-11-15T14:19:10;6.60;;;4.27;;
3637;SDS011;1835;50.068;8.154;2022-11-15T14:25:04;6.03;;;4.30;;
3637;SDS011;1835;50.068;8.154;2022-11-15T14:27:54;14.23;;;4.40;;
3637;SDS011;1835;50.068;8.154;2022-11-15T14:30:44;11.07;;;4.67;;
3637;SDS011;1835;50.068;8.154;2022-11-15T14:33:18;9.20;;;4.63;;
3637;SDS011;1835;50.068;8.154;2022-11-15T14:35:50;15.70;;;4.13;;
3637;SDS011;1835;50.068;8.154;2022-11-15T14:38:18;5.13;;;3.90;;
3637;SDS011;1835;50.068;8.154;2022-11-15T14:40:47;14.80;;;4.40;;
3637;SDS011;1835;50.068;8.154;2022-11-15T14:43:16;7.27;;;3.90;;
3637;SDS011;1835;50.068;8.154;2022-11-15T14:45:44;13.70;;;4.50;;
3637;SDS011;1835;50.068;8.154;2022-11-15T14:48:12;16.30;;;4.77;;
3637;SDS011;1835;50.068;8.154;2022-11-15T14:50:40;7.27;;;4.03;;
3637;SDS011;1835;50.068;8.154;2022-11-15T14:53:11;5.73;;;3.93;;
3637;SDS011;1835;50.068;8.154;2022-11-15T14:55:42;5.67;;;4.03;;
3637;SDS011;1835;50.068;8.154;2022-11-15T14:58:11;9.47;;;3.43;;
3637;SDS011;1835;50.068;8.154;2022-11-15T15:00:41;5.60;;;4.40;;
3637;SDS011;1835;50.068;8.154;2022-11-15T15:03:09;5.73;;;4.50;;
3637;SDS011;1835;50.068;8.154;2022-11-15T15:05:38;9.47;;;4.27;;
3637;SDS011;1835;50.068;8.154;2022-11-15T15:08:08;7.33;;;4.13;;
3637;SDS011;1835;50.068;8.154;2022-11-15T15:10:38;12.40;;;4.40;;
3637;SDS011;1835;50.068;8.154;2022-11-15T15:13:10;7.87;;;5.00;;
3637;SDS011;1835;50.068;8.154;2022-11-15T15:15:46;9.70;;;5.17;;
3637;SDS011;1835;50.068;8.154;2022-11-15T15:18:15;9.53;;;4.93;;
3637;SDS011;1835;50.068;8.154;2022-11-15T15:20:47;11.43;;;5.50;;
3637;SDS011;1835;50.068;8.154;2022-11-15T15:23:22;10.47;;;4.20;;
3637;SDS011;1835;50.068;8.154;2022-11-15T15:25:51;11.20;;;4.27;;
3637;SDS011;1835;50.068;8.154;2022-11-15T15:28:19;7.07;;;4.27;;
3637;SDS011;1835;50.068;8.154;2022-11-15T15:30:49;7.73;;;4.40;;
3637;SDS011;1835;50.068;8.154;2022-11-15T15:33:19;6.47;;;4.20;;
3637;SDS011;1835;50.068;8.154;2022-11-15T15:35:47;10.33;;;4.50;;
3637;SDS011;1835;50.068;8.154;2022-11-15T15:38:15;11.20;;;4.37;;
3637;SDS011;1835;50.068;8.154;2022-11-15T15:40:45;14.83;;;4.07;;
3637;SDS011;1835;50.068;8.154;2022-11-15T15:43:16;4.97;;;3.30;;
3637;SDS011;1835;50.068;8.154;2022-11-15T15:45:45;3.93;;;3.03;;
3637;SDS011;1835;50.068;8.154;2022-11-15T15:48:15;5.17;;;4.00;;
3637;SDS011;1835;50.068;8.154;2022-11-15T15:50:44;3.70;;;3.40;;
3637;SDS011;1835;50.068;8.154;2022-11-15T15:53:12;5.20;;;3.40;;
3637;SDS011;1835;50.068;8.154;2022-11-15T15:55:40;10.07;;;4.50;;
3637;SDS011;1835;50.068;8.154;2022-11-15T15:58:08;13.70;;;4.00;;
3637;SDS011;1835;50.068;8.154;2022-11-15T16:00:36;3.47;;;3.17;;
3637;SDS011;1835;50.068;8.154;2022-11-15T16:03:05;7.73;;;4.27;;
3637;SDS011;1835;50.068;8.154;2022-11-15T16:05:34;6.57;;;4.43;;
3637;SDS011;1835;50.068;8.154;2022-11-15T16:08:02;11.83;;;3.53;;
3637;SDS011;1835;50.068;8.154;2022-11-15T16:10:31;6.70;;;3.27;;
3637;SDS011;1835;50.068;8.154;2022-11-15T16:13:01;4.53;;;2.80;;